Hlavní strana
METAR-TAF:

METAR-TAF

Letiště :

Tamanrasset, Alžírsko

zeměpisná šířka: 22-49N, zeměpisná délka: 005-28E, výška: 1377 m

Aktuální stav počasí

Zpráva byla vytvořena před 14 minutami, v 19:30 UTC
Východní vítr 5 kt
Teplota 16°C
Vlhkost vzduchu 20%
Tlak 1023 hPa
Viditelnost 10 km a více
Žádná oblačnost pod 1500 m, nevyskytují se cumulonimby.

METAR: DAAT 051930Z 09005KT CAVOK 16/M07 Q1023

Čas: 20:44 (19:44 UTC)

Předpověď počasí

Zpráva byla vytvořena před 2 hodinami a 44 minutami, v 17:00 UTC
Předpověď platná od 05 v 18 UTC do 06 v 18 UTC
Východní vítr 8 kt
Viditelnost 10 km a více
Žádná oblačnost pod 1500 m, nevyskytují se cumulonimby.
Změna
od 06 v 10 UTC do 06 v 13 UTC
Jihovýchodní vítr 12 kt
Pravděpodobnost 30% :
Dočasný
od 06 v 12 UTC do 06 v 15 UTC
Jihovýchodní vítr 15 kt s nárazy do 25 kt

TAF: DAAT 051700Z 0518/0618 08008KT CAVOK BECMG 0610/0613 14012KT PROB30 TEMPO 0612/0615 14015G25KT

Stav a předpovědi počasí z více než 4 000 letišť (zprávy METAR a TAF).

Červené a žluté tečky na mapě představují dostupné meteorologické stanice.

Když kurzor umístíte na tečku, zobrazí se název stanice.

Pak kliknutím zobrazíte stav a předpověď počasí.

Chcete-li změnit mapu, kliknutím na zelené tlačítko se znaménkem +mapu přiblížíte, kliknutím na zelené tlačítko se znaménkem – mapu oddálíte a kliknutím na zelené šipky přejdete na sousední mapy.


METAR-TAF: